Wetterdaten: aktuell Freitag, 07.08.2020 03:10
Datum Zeit Temp. A. Feuchte A. Luftdruck Regen Wind Richtung Richtung Taupunkt Windchill Windben
07.08.2020 03:10 12,2 C 94 % 1022,5 hPa 0,0 l/m 0,0 km/h (0 Bft) S 171 11,3 C 12,2 C 0,0 km/h (0 Bft)
07.08.2020 03:05 12,2 C 94 % 1022,5 hPa 0,0 l/m 0,0 km/h (0 Bft) S 171 11,3 C 12,2 C 0,0 km/h (0 Bft)
07.08.2020 03:00 12,3 C 94 % 1022,4 hPa 0,0 l/m 0,0 km/h (0 Bft) S 171 11,4 C 12,3 C 0,0 km/h (0 Bft)
07.08.2020 02:55 12,3 C 95 % 1022,5 hPa 0,0 l/m 0,0 km/h (0 Bft) S 184 11,5 C 12,3 C 0,0 km/h (0 Bft)
07.08.2020 02:50 12,1 C 95 % 1022,5 hPa 0,0 l/m 0,0 km/h (0 Bft) S 190 11,3 C 12,1 C 1,6 km/h (1 Bft)
07.08.2020 02:45 11,9 C 94 % 1022,5 hPa 0,0 l/m 0,1 km/h (0 Bft) S-SW 195 11,0 C 11,9 C 3,2 km/h (1 Bft)
07.08.2020 02:40 12,0 C 94 % 1022,5 hPa 0,0 l/m 0,0 km/h (0 Bft) S-SO 152 11,1 C 12,0 C 0,0 km/h (0 Bft)
07.08.2020 02:35 12,1 C 94 % 1022,5 hPa 0,0 l/m 0,0 km/h (0 Bft) S-SO 152 11,2 C 12,1 C 0,0 km/h (0 Bft)
07.08.2020 02:30 12,2 C 94 % 1022,6 hPa 0,0 l/m 0,0 km/h (0 Bft) S-SO 152 11,3 C 12,2 C 0,0 km/h (0 Bft)
07.08.2020 02:25 12,2 C 94 % 1022,6 hPa 0,0 l/m 0,0 km/h (0 Bft) S-SO 152 11,3 C 12,2 C 0,0 km/h (0 Bft)
07.08.2020 02:20 12,2 C 94 % 1022,6 hPa 0,0 l/m 0,2 km/h (0 Bft) SO 131 11,3 C 12,2 C 1,6 km/h (1 Bft)
07.08.2020 02:15 12,1 C 93 % 1022,7 hPa 0,0 l/m 0,1 km/h (0 Bft) SO 131 11,0 C 12,1 C 1,6 km/h (1 Bft)
07.08.2020 02:10 12,1 C 93 % 1022,7 hPa 0,0 l/m 0,1 km/h (0 Bft) S-SO 157 11,0 C 12,1 C 1,6 km/h (1 Bft)
07.08.2020 02:05 12,1 C 93 % 1022,7 hPa 0,0 l/m 0,0 km/h (0 Bft) S-SO 157 11,0 C 12,1 C 0,0 km/h (0 Bft)
07.08.2020 02:00 12,2 C 93 % 1022,8 hPa 0,0 l/m 0,0 km/h (0 Bft) S-SO 157 11,1 C 12,2 C 0,0 km/h (0 Bft)
07.08.2020 01:55 12,3 C 93 % 1022,7 hPa 0,0 l/m 0,0 km/h (0 Bft) S-SO 157 11,2 C 12,3 C 0,0 km/h (0 Bft)
07.08.2020 01:50 12,3 C 93 % 1022,8 hPa 0,0 l/m 0,0 km/h (0 Bft) S-SO 157 11,2 C 12,3 C 0,0 km/h (0 Bft)
07.08.2020 01:45 12,3 C 92 % 1022,7 hPa 0,0 l/m 0,0 km/h (0 Bft) S-SO 157 11,0 C 12,3 C 0,0 km/h (0 Bft)
07.08.2020 01:40 12,4 C 92 % 1022,7 hPa 0,0 l/m 0,0 km/h (0 Bft) S-SO 157 11,1 C 12,4 C 0,0 km/h (0 Bft)
07.08.2020 01:35 12,7 C 91 % 1022,8 hPa 0,0 l/m 0,0 km/h (0 Bft) S-SO 157 11,3 C 12,7 C 0,0 km/h (0 Bft)
07.08.2020 01:30 13,0 C 92 % 1022,7 hPa 0,0 l/m 0,0 km/h (0 Bft) S-SO 157 11,7 C 13,0 C 0,0 km/h (0 Bft)
07.08.2020 01:25 12,9 C 92 % 1022,7 hPa 0,0 l/m 0,0 km/h (0 Bft) S-SO 157 11,6 C 12,9 C 0,0 km/h (0 Bft)
07.08.2020 01:20 12,7 C 92 % 1022,7 hPa 0,0 l/m 0,0 km/h (0 Bft) S-SO 157 11,4 C 12,7 C 0,0 km/h (0 Bft)
07.08.2020 01:15 12,5 C 91 % 1022,8 hPa 0,0 l/m 0,0 km/h (0 Bft) S-SO 157 11,1 C 12,5 C 0,0 km/h (0 Bft)
07.08.2020 01:10 12,6 C 91 % 1022,8 hPa 0,0 l/m 0,0 km/h (0 Bft) S-SO 157 11,2 C 12,6 C 0,0 km/h (0 Bft)
07.08.2020 01:05 12,7 C 90 % 1022,8 hPa 0,0 l/m 0,0 km/h (0 Bft) S-SO 157 11,1 C 12,7 C 0,0 km/h (0 Bft)
07.08.2020 01:00 12,8 C 91 % 1022,9 hPa 0,0 l/m 0,0 km/h (0 Bft) S-SO 157 11,4 C 12,8 C 0,0 km/h (0 Bft)
07.08.2020 00:55 12,8 C 91 % 1022,9 hPa 0,0 l/m 0,0 km/h (0 Bft) S-SO 157 11,4 C 12,8 C 0,0 km/h (0 Bft)
07.08.2020 00:50 12,8 C 90 % 1022,9 hPa 0,0 l/m 0,0 km/h (0 Bft) S-SO 157 11,2 C 12,8 C 0,0 km/h (0 Bft)
07.08.2020 00:45 12,8 C 91 % 1022,9 hPa 0,0 l/m 0,0 km/h (0 Bft) S-SO 157 11,4 C 12,8 C 0,0 km/h (0 Bft)
07.08.2020 00:40 12,7 C 91 % 1023,0 hPa 0,0 l/m 0,0 km/h (0 Bft) S-SO 157 11,3 C 12,7 C 0,0 km/h (0 Bft)
07.08.2020 00:35 12,6 C 90 % 1023,0 hPa 0,0 l/m 0,0 km/h (0 Bft) S-SO 157 11,0 C 12,6 C 0,0 km/h (0 Bft)
07.08.2020 00:30 12,8 C 90 % 1023,0 hPa 0,0 l/m 0,0 km/h (0 Bft) S-SO 157 11,2 C 12,8 C 0,0 km/h (0 Bft)
07.08.2020 00:25 12,8 C 90 % 1023,0 hPa 0,0 l/m 0,0 km/h (0 Bft) S-SO 157 11,2 C 12,8 C 0,0 km/h (0 Bft)
07.08.2020 00:20 12,8 C 90 % 1023,0 hPa 0,0 l/m 0,0 km/h (0 Bft) S-SO 157 11,2 C 12,8 C 0,0 km/h (0 Bft)
07.08.2020 00:15 12,7 C 90 % 1023,0 hPa 0,0 l/m 0,0 km/h (0 Bft) S-SO 158 11,1 C 12,7 C 0,0 km/h (0 Bft)
07.08.2020 00:10 12,7 C 90 % 1022,9 hPa 0,0 l/m 0,0 km/h (0 Bft) S-SW 202 11,1 C 12,7 C 0,0 km/h (0 Bft)
07.08.2020 00:05 12,7 C 89 % 1023,0 hPa 0,0 l/m 0,0 km/h (0 Bft) S-SW 202 10,9 C 12,7 C 0,0 km/h (0 Bft)
07.08.2020 00:00 12,8 C 89 % 1023,0 hPa 0,0 l/m 0,0 km/h (0 Bft) S-SW 202 11,0 C 12,8 C 0,0 km/h (0 Bft)
06.08.2020 23:55 12,8 C 89 % 1023,0 hPa 0,0 l/m 0,0 km/h (0 Bft) S-SW 202 11,0 C 12,8 C 0,0 km/h (0 Bft)
06.08.2020 23:50 12,8 C 89 % 1023,0 hPa 0,0 l/m 0,0 km/h (0 Bft) S-SW 202 11,0 C 12,8 C 0,0 km/h (0 Bft)
06.08.2020 23:45 12,7 C 89 % 1023,0 hPa 0,0 l/m 0,0 km/h (0 Bft) S-SW 202 10,9 C 12,7 C 0,0 km/h (0 Bft)
06.08.2020 23:40 12,7 C 89 % 1022,9 hPa 0,0 l/m 0,0 km/h (0 Bft) S-SW 202 10,9 C 12,7 C 0,0 km/h (0 Bft)
06.08.2020 23:35 12,7 C 88 % 1022,8 hPa 0,0 l/m 0,0 km/h (0 Bft) S-SW 202 10,8 C 12,7 C 0,0 km/h (0 Bft)
06.08.2020 23:30 12,8 C 89 % 1022,8 hPa 0,0 l/m 0,0 km/h (0 Bft) S-SW 202 11,0 C 12,8 C 0,0 km/h (0 Bft)
06.08.2020 23:25 12,7 C 88 % 1022,8 hPa 0,0 l/m 0,0 km/h (0 Bft) S-SW 202 10,8 C 12,7 C 0,0 km/h (0 Bft)
06.08.2020 23:20 12,6 C 88 % 1022,8 hPa 0,0 l/m 0,0 km/h (0 Bft) S-SW 202 10,7 C 12,6 C 0,0 km/h (0 Bft)
06.08.2020 23:15 12,5 C 89 % 1022,8 hPa 0,0 l/m 0,0 km/h (0 Bft) S-SW 202 10,7 C 12,5 C 0,0 km/h (0 Bft)
06.08.2020 23:10 12,5 C 88 % 1022,7 hPa 0,0 l/m 0,0 km/h (0 Bft) S-SW 202 10,6 C 12,5 C 0,0 km/h (0 Bft)
06.08.2020 23:05 12,6 C 87 % 1022,7 hPa 0,0 l/m 0,0 km/h (0 Bft) S-SW 202 10,5 C 12,6 C 0,0 km/h (0 Bft)
06.08.2020 23:00 12,8 C 87 % 1022,6 hPa 0,0 l/m 0,0 km/h (0 Bft) S-SW 202 10,7 C 12,8 C 0,0 km/h (0 Bft)
06.08.2020 22:55 12,9 C 86 % 1022,6 hPa 0,0 l/m 0,0 km/h (0 Bft) S-SW 202 10,6 C 12,9 C 0,0 km/h (0 Bft)
06.08.2020 22:50 13,1 C 86 % 1022,6 hPa 0,0 l/m 0,0 km/h (0 Bft) S-SW 202 10,8 C 13,1 C 0,0 km/h (0 Bft)
06.08.2020 22:45 13,2 C 86 % 1022,6 hPa 0,0 l/m 0,0 km/h (0 Bft) S-SW 202 10,9 C 13,2 C 0,0 km/h (0 Bft)
06.08.2020 22:40 13,3 C 85 % 1022,6 hPa 0,0 l/m 0,0 km/h (0 Bft) S-SW 202 10,8 C 13,3 C 0,0 km/h (0 Bft)
06.08.2020 22:35 13,3 C 85 % 1022,6 hPa 0,0 l/m 0,0 km/h (0 Bft) S-SW 202 10,8 C 13,3 C 0,0 km/h (0 Bft)
06.08.2020 22:30 13,3 C 85 % 1022,6 hPa 0,0 l/m 0,0 km/h (0 Bft) S-SW 202 10,8 C 13,3 C 0,0 km/h (0 Bft)
06.08.2020 22:25 13,4 C 85 % 1022,6 hPa 0,0 l/m 0,0 km/h (0 Bft) S-SW 202 10,9 C 13,4 C 0,0 km/h (0 Bft)
06.08.2020 22:20 13,6 C 84 % 1022,5 hPa 0,0 l/m 0,0 km/h (0 Bft) S-SW 202 10,9 C 13,6 C 0,0 km/h (0 Bft)
06.08.2020 22:15 13,7 C 84 % 1022,5 hPa 0,0 l/m 0,0 km/h (0 Bft) S-SW 202 11,0 C 13,7 C 0,0 km/h (0 Bft)
06.08.2020 22:10 13,8 C 84 % 1022,5 hPa 0,0 l/m 0,0 km/h (0 Bft) S-SW 202 11,1 C 13,8 C 0,0 km/h (0 Bft)
06.08.2020 22:05 13,9 C 83 % 1022,5 hPa 0,0 l/m 0,0 km/h (0 Bft) S-SW 202 11,1 C 13,9 C 0,0 km/h (0 Bft)
06.08.2020 22:00 14,1 C 83 % 1022,6 hPa 0,0 l/m 0,0 km/h (0 Bft) S-SW 202 11,3 C 14,1 C 0,0 km/h (0 Bft)
06.08.2020 21:55 14,2 C 83 % 1022,5 hPa 0,0 l/m 0,0 km/h (0 Bft) S-SW 202 11,4 C 14,2 C 0,0 km/h (0 Bft)
06.08.2020 21:50 14,3 C 83 % 1022,4 hPa 0,0 l/m 0,0 km/h (0 Bft) S-SW 202 11,5 C 14,3 C 0,0 km/h (0 Bft)
06.08.2020 21:45 14,4 C 83 % 1022,4 hPa 0,0 l/m 0,0 km/h (0 Bft) S-SW 202 11,5 C 14,4 C 0,0 km/h (0 Bft)
06.08.2020 21:40 14,6 C 82 % 1022,4 hPa 0,0 l/m 0,0 km/h (0 Bft) S-SW 202 11,6 C 14,6 C 0,0 km/h (0 Bft)
06.08.2020 21:35 14,8 C 81 % 1022,3 hPa 0,0 l/m 0,0 km/h (0 Bft) S-SW 202 11,6 C 14,8 C 0,0 km/h (0 Bft)
06.08.2020 21:30 14,9 C 81 % 1022,3 hPa 0,0 l/m 0,0 km/h (0 Bft) S-SW 202 11,7 C 14,9 C 0,0 km/h (0 Bft)
06.08.2020 21:25 15,1 C 81 % 1022,2 hPa 0,0 l/m 0,0 km/h (0 Bft) S-SW 202 11,9 C 15,1 C 0,0 km/h (0 Bft)
06.08.2020 21:20 15,3 C 80 % 1022,2 hPa 0,0 l/m 0,0 km/h (0 Bft) S-SW 202 11,9 C 15,3 C 0,0 km/h (0 Bft)
06.08.2020 21:15 15,6 C 79 % 1022,2 hPa 0,0 l/m 0,0 km/h (0 Bft) S-SW 202 12,0 C 15,6 C 0,0 km/h (0 Bft)
06.08.2020 21:10 15,7 C 79 % 1022,1 hPa 0,0 l/m 0,0 km/h (0 Bft) S-SW 202 12,1 C 15,7 C 0,0 km/h (0 Bft)
06.08.2020 21:05 15,9 C 78 % 1022,0 hPa 0,0 l/m 0,0 km/h (0 Bft) S-SW 202 12,1 C 15,9 C 0,0 km/h (0 Bft)
06.08.2020 21:00 16,1 C 77 % 1022,0 hPa 0,0 l/m 0,0 km/h (0 Bft) S-SW 202 12,1 C 16,1 C 0,0 km/h (0 Bft)
06.08.2020 20:55 16,4 C 76 % 1021,9 hPa 0,0 l/m 0,0 km/h (0 Bft) S-SW 202 12,2 C 16,4 C 0,0 km/h (0 Bft)
06.08.2020 20:50 16,6 C 75 % 1021,9 hPa 0,0 l/m 0,0 km/h (0 Bft) S-SW 202 12,1 C 16,6 C 0,0 km/h (0 Bft)
06.08.2020 20:45 16,9 C 73 % 1021,8 hPa 0,0 l/m 0,0 km/h (0 Bft) S-SW 202 12,0 C 16,9 C 0,0 km/h (0 Bft)
06.08.2020 20:40 17,4 C 70 % 1021,8 hPa 0,0 l/m 0,0 km/h (0 Bft) S-SW 204 11,9 C 17,4 C 0,0 km/h (0 Bft)
06.08.2020 20:35 17,8 C 69 % 1021,8 hPa 0,0 l/m 0,0 km/h (0 Bft) S-SW 204 12,0 C 17,8 C 0,0 km/h (0 Bft)
06.08.2020 20:30 18,1 C 68 % 1021,6 hPa 0,0 l/m 0,0 km/h (0 Bft) S-SW 204 12,1 C 18,1 C 0,0 km/h (0 Bft)
06.08.2020 20:25 18,3 C 67 % 1021,7 hPa 0,0 l/m 0,0 km/h (0 Bft) S-SW 204 12,1 C 18,3 C 0,0 km/h (0 Bft)
06.08.2020 20:20 18,6 C 66 % 1021,6 hPa 0,0 l/m 0,0 km/h (0 Bft) S-SW 204 12,1 C 18,6 C 0,0 km/h (0 Bft)
06.08.2020 20:15 18,9 C 65 % 1021,6 hPa 0,0 l/m 0,0 km/h (0 Bft) S-SW 204 12,2 C 18,9 C 0,0 km/h (0 Bft)
06.08.2020 20:10 19,1 C 63 % 1021,6 hPa 0,0 l/m 0,0 km/h (0 Bft) S-SW 204 11,9 C 19,1 C 0,0 km/h (0 Bft)
06.08.2020 20:05 19,3 C 62 % 1021,5 hPa 0,0 l/m 0,0 km/h (0 Bft) S-SW 204 11,8 C 19,3 C 0,0 km/h (0 Bft)
06.08.2020 20:00 19,4 C 61 % 1021,6 hPa 0,0 l/m 0,0 km/h (0 Bft) S-SW 204 11,7 C 19,4 C 0,0 km/h (0 Bft)
06.08.2020 19:55 19,7 C 61 % 1021,6 hPa 0,0 l/m 0,0 km/h (0 Bft) S-SW 204 12,0 C 19,7 C 0,0 km/h (0 Bft)
06.08.2020 19:50 19,8 C 60 % 1021,5 hPa 0,0 l/m 0,0 km/h (0 Bft) S-SW 204 11,8 C 19,8 C 0,0 km/h (0 Bft)
06.08.2020 19:45 19,9 C 60 % 1021,6 hPa 0,0 l/m 0,0 km/h (0 Bft) S-SW 204 11,9 C 19,9 C 0,0 km/h (0 Bft)
06.08.2020 19:40 20,3 C 58 % 1021,6 hPa 0,0 l/m 0,0 km/h (0 Bft) S-SW 204 11,8 C 20,3 C 0,0 km/h (0 Bft)
06.08.2020 19:35 20,4 C 59 % 1021,6 hPa 0,0 l/m 0,0 km/h (0 Bft) S-SW 203 12,1 C 20,4 C 0,0 km/h (0 Bft)
06.08.2020 19:30 20,6 C 58 % 1021,6 hPa 0,0 l/m 0,2 km/h (0 Bft) SO 146 12,0 C 20,6 C 3,2 km/h (1 Bft)
06.08.2020 19:25 20,8 C 57 % 1021,6 hPa 0,0 l/m 0,0 km/h (0 Bft) S-SO 158 12,0 C 20,8 C 0,0 km/h (0 Bft)
06.08.2020 19:20 21,3 C 55 % 1021,5 hPa 0,0 l/m 0,0 km/h (0 Bft) S-SO 160 11,9 C 21,3 C 0,0 km/h (0 Bft)
06.08.2020 19:15 21,2 C 55 % 1021,5 hPa 0,0 l/m 0,0 km/h (0 Bft) S-SO 160 11,8 C 21,2 C 0,0 km/h (0 Bft)
06.08.2020 19:10 21,4 C 55 % 1021,5 hPa 0,0 l/m 0,0 km/h (0 Bft) W-SW 241 12,0 C 21,4 C 0,0 km/h (0 Bft)
06.08.2020 19:05 21,8 C 52 % 1021,4 hPa 0,0 l/m 0,0 km/h (0 Bft) W-SW 241 11,5 C 21,8 C 0,0 km/h (0 Bft)
06.08.2020 19:00 21,9 C 52 % 1021,4 hPa 0,0 l/m 0,0 km/h (0 Bft) W-SW 241 11,6 C 21,9 C 0,0 km/h (0 Bft)
06.08.2020 18:55 22,0 C 52 % 1021,3 hPa 0,0 l/m 0,0 km/h (0 Bft) NO 46 11,7 C 22,0 C 0,0 km/h (0 Bft)
_ Min-Zeit 05:30 15:50 06:50 - 04:00 - - 05:30 05:30 04:00
Minimum _ 6,8 C 46 % 1020,2 hPa - 0,0 km/h (0 Bft) - - 6,1 C 6,8 C 0,0 km/h (0 Bft)
_ Max-Zeit 15:50 06:45 23:45 04:00 17:05 - - 13:10 15:35 17:05
Maximum _ 24,0 C 96 % 1023,0 hPa 0,0 l/m 7,0 km/h
N (2 Bft)
- - 13,4 C 23,8 C 16,1 km/h
NO (3 Bft)
Durchschnitt _ 15,6 C 74 % 1022,0 hPa #0,0 l/m 1,2 km/h (1 Bft) N-NO - 10,3 C 15,6 C 3,1 km/h (1 Bft)